Time;durP1;ratioP1;P1;durP2;ratioP2;P2;SDS_P1;SDS_P2;PMS_P1;PMS_P2;Temp;Humidity;BMP_temperature;BMP_pressure;BME280_temperature;BME280_humidity;BME280_pressure;Samples;Min_cycle;Max_cycle;Signal;HPM_P1;HPM_P2
2024/01/20 00:01:44;;;;;;;17.67;9.63;;;-2.80;99.90;;;;;;5056636;28;20197;-80
2024/01/20 00:04:09;;;;;;;19.17;9.20;;;-2.80;99.90;;;;;;5075464;28;20172;-80
2024/01/20 00:06:35;;;;;;;17.80;9.60;;;-2.80;99.90;;;;;;5057413;28;20173;-80
2024/01/20 00:09:00;;;;;;;18.37;9.03;;;-2.90;99.90;;;;;;5057195;28;20196;-81
2024/01/20 00:11:26;;;;;;;14.00;8.37;;;-3.00;99.90;;;;;;5075088;28;20177;-82
2024/01/20 00:13:52;;;;;;;16.17;8.47;;;-2.90;99.90;;;;;;5075197;28;20209;-80
2024/01/20 00:16:17;;;;;;;16.43;9.13;;;-2.90;99.90;;;;;;5074720;28;20197;-80
2024/01/20 00:18:43;;;;;;;15.80;8.67;;;-2.90;99.90;;;;;;5057228;28;20196;-80
2024/01/20 00:21:08;;;;;;;16.97;9.70;;;-2.90;99.90;;;;;;5056165;28;20199;-80
2024/01/20 00:23:34;;;;;;;17.53;9.53;;;-2.90;99.90;;;;;;5056794;28;20664;-80
2024/01/20 00:25:59;;;;;;;15.80;8.73;;;-3.00;99.90;;;;;;5057013;28;20173;-80
2024/01/20 00:28:25;;;;;;;16.67;9.33;;;-3.00;99.90;;;;;;5056527;28;20203;-80
2024/01/20 00:30:50;;;;;;;18.30;9.10;;;-3.10;99.90;;;;;;5056395;28;20204;-82
2024/01/20 00:33:16;;;;;;;14.67;8.67;;;-3.10;99.90;;;;;;5074628;28;20187;-80
2024/01/20 00:35:44;;;;;;;16.73;8.90;;;-3.00;99.90;;;;;;5075148;28;20177;-80
2024/01/20 00:38:10;;;;;;;17.27;9.00;;;-3.00;99.90;;;;;;5056677;28;20193;-80
2024/01/20 00:40:35;;;;;;;16.00;8.87;;;-2.90;99.90;;;;;;5055904;28;20258;-80
2024/01/20 00:43:01;;;;;;;15.93;8.67;;;-2.80;99.90;;;;;;5056295;28;20165;-80
2024/01/20 00:45:26;;;;;;;18.80;10.20;;;-2.80;99.90;;;;;;5074743;28;20246;-80
2024/01/20 00:47:52;;;;;;;16.37;9.10;;;-2.70;99.90;;;;;;5074351;28;20204;-80
2024/01/20 00:50:18;;;;;;;17.97;9.07;;;-2.70;99.90;;;;;;5073965;28;20256;-80
2024/01/20 00:52:44;;;;;;;16.07;9.57;;;-2.70;99.90;;;;;;5074155;28;20209;-80
2024/01/20 00:55:10;;;;;;;19.20;10.40;;;-2.70;99.90;;;;;;5074561;28;20215;-80
2024/01/20 00:57:36;;;;;;;20.80;10.23;;;-2.70;99.90;;;;;;5074586;28;20212;-80
2024/01/20 01:00:04;;;;;;;18.93;10.03;;;-2.70;99.90;;;;;;5074797;28;20177;-82
2024/01/20 01:02:30;;;;;;;19.97;10.07;;;-2.60;99.90;;;;;;5074471;28;20269;-80
2024/01/20 01:04:56;;;;;;;21.07;10.23;;;-2.60;99.90;;;;;;5074512;28;20663;-81
2024/01/20 01:07:21;;;;;;;16.43;9.33;;;-2.60;99.90;;;;;;5056633;28;20696;-80
2024/01/20 01:09:48;;;;;;;15.83;8.97;;;-2.50;99.90;;;;;;5056064;28;20173;-80
2024/01/20 01:12:14;;;;;;;20.90;9.80;;;-2.60;99.90;;;;;;5056030;28;20183;-82
2024/01/20 01:14:39;;;;;;;17.23;9.67;;;-2.60;99.90;;;;;;5056264;28;20177;-80
2024/01/20 01:17:06;;;;;;;19.40;9.20;;;-2.60;99.90;;;;;;5056179;28;20189;-79
2024/01/20 01:19:31;;;;;;;19.33;9.77;;;-2.60;99.90;;;;;;5073413;28;20179;-79
2024/01/20 01:21:57;;;;;;;20.53;10.03;;;-2.60;99.90;;;;;;5055545;28;20201;-80
2024/01/20 01:24:23;;;;;;;18.83;10.20;;;-2.60;99.90;;;;;;5056335;28;20165;-80
2024/01/20 01:26:48;;;;;;;18.80;9.83;;;-2.60;99.90;;;;;;5056050;28;20173;-80
2024/01/20 01:29:14;;;;;;;20.80;10.50;;;-2.60;99.90;;;;;;5056109;28;20257;-82
2024/01/20 01:31:40;;;;;;;20.23;10.17;;;-2.60;99.90;;;;;;5055886;28;20200;-80
2024/01/20 01:34:05;;;;;;;21.07;10.27;;;-2.60;99.90;;;;;;5056024;28;20177;-80
2024/01/20 01:36:31;;;;;;;17.03;9.97;;;-2.50;99.90;;;;;;5074563;28;20259;-80
2024/01/20 01:38:56;;;;;;;16.53;9.97;;;-2.60;99.90;;;;;;5056399;28;20197;-81
2024/01/20 01:41:22;;;;;;;19.20;10.40;;;-2.60;99.90;;;;;;5073662;28;20208;-80
2024/01/20 01:43:48;;;;;;;18.27;9.40;;;-2.60;99.90;;;;;;5056242;28;20169;-80
2024/01/20 01:46:14;;;;;;;17.83;9.23;;;-2.50;99.90;;;;;;5055782;28;20169;-80
2024/01/20 01:48:39;;;;;;;16.30;9.73;;;-2.50;99.90;;;;;;5062133;28;20218;-80
2024/01/20 01:51:05;;;;;;;18.67;10.03;;;-2.60;99.90;;;;;;5061723;28;20169;-80
2024/01/20 01:53:35;;;;;;;17.37;9.77;;;-2.50;99.90;;;;;;5062277;28;20287;-80
2024/01/20 01:56:01;;;;;;;17.30;9.10;;;-2.60;99.90;;;;;;5080544;28;20180;-79
2024/01/20 01:58:30;;;;;;;19.87;10.07;;;-2.50;99.90;;;;;;5062518;28;20219;-79
2024/01/20 02:00:55;;;;;;;19.40;9.30;;;-2.50;99.90;;;;;;5080913;28;20193;-80
2024/01/20 02:03:21;;;;;;;19.07;9.27;;;-2.60;99.90;;;;;;5080621;28;20218;-83
2024/01/20 02:05:47;;;;;;;18.90;9.50;;;-2.50;99.90;;;;;;5079981;28;20181;-83
2024/01/20 02:08:12;;;;;;;23.00;9.90;;;-2.50;99.90;;;;;;5080027;28;20254;-80
2024/01/20 02:10:39;;;;;;;17.07;9.67;;;-2.60;99.90;;;;;;5079547;28;20209;-80
2024/01/20 02:13:05;;;;;;;19.83;10.43;;;-2.60;99.90;;;;;;5079820;28;20180;-80
2024/01/20 02:15:33;;;;;;;21.57;9.70;;;-2.70;99.90;;;;;;5080008;28;20263;-80
2024/01/20 02:17:58;;;;;;;19.67;10.33;;;-2.70;99.90;;;;;;5079689;28;20232;-80
2024/01/20 02:20:24;;;;;;;22.17;9.77;;;-2.70;99.90;;;;;;5061862;28;20180;-80
2024/01/20 02:22:50;;;;;;;19.67;9.70;;;-2.70;99.90;;;;;;5061736;28;20182;-80
2024/01/20 02:25:16;;;;;;;21.20;10.07;;;-2.70;99.90;;;;;;5061893;28;20209;-78
2024/01/20 02:27:42;;;;;;;20.00;10.50;;;-2.70;99.90;;;;;;5079701;28;20242;-83
2024/01/20 02:30:07;;;;;;;19.33;9.73;;;-2.70;99.90;;;;;;5061403;28;20184;-78
2024/01/20 02:32:33;;;;;;;17.67;9.87;;;-2.70;99.90;;;;;;5079651;28;20181;-80
2024/01/20 02:34:59;;;;;;;16.67;9.33;;;-2.70;99.90;;;;;;5080252;28;20222;-80
2024/01/20 02:37:24;;;;;;;14.57;8.33;;;-2.70;99.90;;;;;;5079857;28;20199;-80
2024/01/20 02:39:50;;;;;;;18.37;9.93;;;-2.70;99.90;;;;;;5079771;28;20180;-81
2024/01/20 02:42:15;;;;;;;18.70;9.73;;;-2.70;99.90;;;;;;5061352;28;20204;-80
2024/01/20 02:44:42;;;;;;;21.70;9.20;;;-2.70;99.90;;;;;;5062174;28;20187;-80
2024/01/20 02:47:07;;;;;;;17.33;9.90;;;-2.80;99.90;;;;;;5061654;28;20199;-80
2024/01/20 02:49:34;;;;;;;17.27;9.33;;;-2.70;99.90;;;;;;5061714;28;20173;-80
2024/01/20 02:52:00;;;;;;;20.33;10.23;;;-2.70;99.90;;;;;;5061238;28;20199;-79
2024/01/20 02:54:26;;;;;;;18.97;9.43;;;-2.70;99.90;;;;;;5079591;28;20551;-80
2024/01/20 02:56:51;;;;;;;20.63;11.27;;;-2.70;99.90;;;;;;5061660;28;20184;-80
2024/01/20 02:59:17;;;;;;;20.83;10.40;;;-2.70;99.90;;;;;;5058621;28;20185;-80
2024/01/20 03:01:43;;;;;;;21.13;10.77;;;-2.70;99.90;;;;;;5076432;28;20291;-81
2024/01/20 03:04:08;;;;;;;20.57;10.70;;;-2.70;99.90;;;;;;5058245;28;20183;-80
2024/01/20 03:06:34;;;;;;;20.83;10.33;;;-2.70;99.90;;;;;;5058571;28;20201;-80
2024/01/20 03:08:59;;;;;;;20.87;10.27;;;-2.70;99.90;;;;;;5075808;28;20284;-80
2024/01/20 03:11:25;;;;;;;22.77;11.00;;;-2.70;99.90;;;;;;5075698;28;20265;-80
2024/01/20 03:13:51;;;;;;;17.50;9.60;;;-2.70;99.90;;;;;;5075871;28;20175;-80
2024/01/20 03:16:16;;;;;;;18.03;9.63;;;-2.80;99.90;;;;;;5058227;28;20184;-80
2024/01/20 03:18:42;;;;;;;19.50;9.33;;;-2.80;99.90;;;;;;5058177;28;20196;-79
2024/01/20 03:21:08;;;;;;;15.97;8.90;;;-2.80;99.90;;;;;;5057417;28;20209;-80
2024/01/20 03:23:33;;;;;;;19.47;10.53;;;-2.80;99.90;;;;;;5058295;28;20192;-81
2024/01/20 03:26:05;;;;;;;17.67;9.73;;;-2.80;99.90;;;;;;5058015;28;20218;-80
2024/01/20 03:28:31;;;;;;;20.17;9.40;;;-2.80;99.90;;;;;;5076202;28;20213;-80
2024/01/20 03:30:56;;;;;;;20.57;9.70;;;-2.80;99.90;;;;;;5057239;28;20579;-80
2024/01/20 03:33:22;;;;;;;17.80;9.00;;;-2.80;99.90;;;;;;5075887;28;20541;-80
2024/01/20 03:35:47;;;;;;;20.90;9.43;;;-2.90;99.90;;;;;;5076199;28;20173;-82
2024/01/20 03:38:13;;;;;;;20.37;10.00;;;-2.90;99.90;;;;;;5058023;28;20197;-80
2024/01/20 03:40:39;;;;;;;16.57;9.27;;;-2.90;99.90;;;;;;5057321;28;20184;-80
2024/01/20 03:43:04;;;;;;;19.53;9.57;;;-2.90;99.90;;;;;;5057926;28;20177;-80
2024/01/20 03:45:30;;;;;;;23.83;10.67;;;-2.90;99.90;;;;;;5057713;28;20177;-80
2024/01/20 03:47:55;;;;;;;19.17;10.17;;;-2.90;99.90;;;;;;5075339;28;20208;-80
2024/01/20 03:50:21;;;;;;;18.50;10.03;;;-3.00;99.90;;;;;;5057251;28;20181;-79
2024/01/20 03:52:47;;;;;;;20.13;10.40;;;-3.00;99.90;;;;;;5057519;28;20180;-80
2024/01/20 03:55:13;;;;;;;22.07;9.63;;;-3.00;99.90;;;;;;5057757;28;20169;-80
2024/01/20 03:57:38;;;;;;;23.87;10.70;;;-3.00;99.90;;;;;;5057480;28;20205;-80
2024/01/20 04:00:04;;;;;;;21.00;11.43;;;-3.00;99.90;;;;;;5057084;28;20299;-80
2024/01/20 04:02:30;;;;;;;25.07;12.53;;;-3.00;99.90;;;;;;5075271;28;20209;-83
2024/01/20 04:04:56;;;;;;;21.13;10.83;;;-3.00;99.90;;;;;;5075666;28;20171;-80
2024/01/20 04:07:21;;;;;;;23.63;12.60;;;-3.00;99.90;;;;;;5057640;28;20188;-80
2024/01/20 04:09:47;;;;;;;22.37;12.53;;;-3.00;99.90;;;;;;5057028;28;20274;-80
2024/01/20 04:12:13;;;;;;;24.63;12.93;;;-3.00;99.90;;;;;;5057101;28;20177;-80
2024/01/20 04:14:38;;;;;;;20.50;11.20;;;-3.00;99.90;;;;;;5057563;28;20608;-80
2024/01/20 04:17:04;;;;;;;16.30;9.87;;;-3.00;99.90;;;;;;5075168;28;20207;-80
2024/01/20 04:19:29;;;;;;;19.37;10.10;;;-3.00;99.90;;;;;;5056848;28;20188;-80
2024/01/20 04:21:55;;;;;;;19.63;9.83;;;-3.10;99.90;;;;;;5056902;28;20626;-81
2024/01/20 04:24:20;;;;;;;17.33;10.10;;;-3.10;99.90;;;;;;5074906;28;20181;-79
2024/01/20 04:26:46;;;;;;;19.17;10.63;;;-3.00;99.90;;;;;;5057241;28;20276;-80
2024/01/20 04:29:12;;;;;;;22.37;11.57;;;-3.00;99.90;;;;;;5057013;28;20177;-79
2024/01/20 04:31:37;;;;;;;22.97;10.73;;;-3.00;99.90;;;;;;5074252;28;20326;-80
2024/01/20 04:34:04;;;;;;;19.17;11.07;;;-3.00;99.90;;;;;;5057305;28;20252;-82
2024/01/20 04:36:30;;;;;;;21.77;11.07;;;-3.00;99.90;;;;;;5075399;28;20177;-80
2024/01/20 04:38:55;;;;;;;20.80;10.70;;;-3.00;99.90;;;;;;5075506;28;20256;-80
2024/01/20 04:41:21;;;;;;;22.60;10.40;;;-3.00;99.90;;;;;;5056533;28;20192;-83
2024/01/20 04:43:47;;;;;;;19.57;10.13;;;-3.00;99.90;;;;;;5075133;28;20177;-80
2024/01/20 04:46:12;;;;;;;19.47;10.60;;;-3.00;99.90;;;;;;5075159;28;20582;-80
2024/01/20 04:48:38;;;;;;;16.90;9.57;;;-3.00;99.90;;;;;;5056626;28;20192;-79
2024/01/20 04:51:04;;;;;;;20.10;10.37;;;-3.10;99.90;;;;;;5056146;28;20180;-82
2024/01/20 04:53:29;;;;;;;20.27;10.07;;;-3.10;99.90;;;;;;5056485;28;20567;-79
2024/01/20 04:55:55;;;;;;;20.47;9.93;;;-3.10;99.90;;;;;;5074393;28;20182;-79
2024/01/20 04:58:20;;;;;;;19.40;10.20;;;-3.10;99.90;;;;;;5078731;22;20626;-77
2024/01/20 05:00:46;;;;;;;17.97;9.57;;;-3.10;99.90;;;;;;5054120;28;20200;-78
2024/01/20 05:03:11;;;;;;;23.63;10.60;;;-3.10;99.90;;;;;;5072352;28;20224;-78
2024/01/20 05:05:39;;;;;;;18.03;10.03;;;-3.10;99.90;;;;;;5072569;28;20226;-78
2024/01/20 05:08:05;;;;;;;16.80;9.80;;;-3.10;99.90;;;;;;5054515;28;20204;-79
2024/01/20 05:10:30;;;;;;;17.73;9.77;;;-3.10;99.90;;;;;;5071834;28;20173;-77
2024/01/20 05:12:56;;;;;;;17.03;9.30;;;-3.10;99.90;;;;;;5072271;28;20165;-77
2024/01/20 05:15:21;;;;;;;21.77;10.00;;;-3.10;99.90;;;;;;5072391;28;20266;-78
2024/01/20 05:17:47;;;;;;;16.83;8.60;;;-3.10;99.90;;;;;;5071965;28;20578;-78
2024/01/20 05:20:15;;;;;;;18.57;10.37;;;-3.10;99.90;;;;;;5071422;28;20554;-78
2024/01/20 05:22:42;;;;;;;19.20;10.03;;;-3.10;99.90;;;;;;5071446;28;20280;-77
2024/01/20 05:25:07;;;;;;;17.97;9.53;;;-3.10;99.90;;;;;;5072165;28;20557;-78
2024/01/20 05:27:33;;;;;;;16.63;8.40;;;-3.10;99.90;;;;;;5072044;28;20193;-78
2024/01/20 05:29:59;;;;;;;18.70;9.10;;;-3.10;99.90;;;;;;5071912;28;20172;-78
2024/01/20 05:32:25;;;;;;;19.33;9.80;;;-3.10;99.90;;;;;;5053755;28;20615;-79
2024/01/20 05:34:50;;;;;;;16.37;9.67;;;-3.20;99.90;;;;;;5053945;28;20209;-78
2024/01/20 05:37:16;;;;;;;16.37;9.57;;;-3.20;99.90;;;;;;5054110;28;20196;-78
2024/01/20 05:39:42;;;;;;;16.67;8.10;;;-3.20;99.90;;;;;;5071775;28;20173;-77
2024/01/20 05:42:07;;;;;;;22.20;10.20;;;-3.20;99.90;;;;;;5053797;28;20201;-77
2024/01/20 05:44:33;;;;;;;21.07;9.70;;;-3.30;99.90;;;;;;5053916;28;20196;-76
2024/01/20 05:46:58;;;;;;;19.30;9.80;;;-3.20;99.90;;;;;;5054027;28;20169;-77
2024/01/20 05:49:24;;;;;;;23.30;10.27;;;-3.20;99.90;;;;;;5071450;28;20228;-78
2024/01/20 05:51:49;;;;;;;18.47;10.10;;;-3.10;99.90;;;;;;5053429;28;20203;-78
2024/01/20 05:54:15;;;;;;;18.43;9.73;;;-3.20;99.90;;;;;;5071814;28;20234;-77
2024/01/20 05:56:40;;;;;;;24.97;11.27;;;-3.10;99.90;;;;;;5053808;28;20181;-78
2024/01/20 05:59:06;;;;;;;19.00;10.27;;;-3.10;99.90;;;;;;5071886;28;20299;-78
2024/01/20 06:01:32;;;;;;;21.73;9.77;;;-3.10;99.90;;;;;;5071044;28;20209;-78
2024/01/20 06:03:57;;;;;;;24.23;11.20;;;-3.00;99.90;;;;;;5053777;28;20183;-77
2024/01/20 06:06:23;;;;;;;20.53;10.97;;;-3.00;99.90;;;;;;5071838;28;20188;-78
2024/01/20 06:08:48;;;;;;;19.30;10.00;;;-3.10;99.90;;;;;;5071701;28;20582;-78
2024/01/20 06:11:14;;;;;;;20.80;10.33;;;-3.10;99.90;;;;;;5053210;28;20556;-78
2024/01/20 06:13:39;;;;;;;21.47;10.90;;;-3.10;99.90;;;;;;5053679;28;20177;-80
2024/01/20 06:16:06;;;;;;;23.17;12.03;;;-3.10;99.90;;;;;;5054321;28;20184;-78
2024/01/20 06:18:31;;;;;;;19.90;10.43;;;-3.20;99.90;;;;;;5072168;28;20193;-79
2024/01/20 06:20:59;;;;;;;19.00;9.60;;;-3.10;99.90;;;;;;5053600;28;20238;-79
2024/01/20 06:23:25;;;;;;;15.83;9.77;;;-3.10;99.90;;;;;;5054426;28;20209;-79
2024/01/20 06:25:51;;;;;;;20.23;9.00;;;-3.20;99.90;;;;;;5054045;28;20223;-79
2024/01/20 06:28:17;;;;;;;13.70;8.00;;;-3.20;99.90;;;;;;5071895;28;20225;-79
2024/01/20 06:30:44;;;;;;;15.70;8.73;;;-3.30;99.90;;;;;;5071106;28;20561;-79
2024/01/20 06:33:09;;;;;;;18.10;9.33;;;-3.30;99.90;;;;;;5071937;28;20195;-79
2024/01/20 06:35:35;;;;;;;18.27;8.73;;;-3.30;99.90;;;;;;5057692;28;20596;-79
2024/01/20 06:38:00;;;;;;;18.37;9.07;;;-3.40;99.90;;;;;;5057465;28;20246;-81
2024/01/20 06:40:26;;;;;;;17.60;9.63;;;-3.40;99.90;;;;;;5057292;28;20199;-83
2024/01/20 06:42:52;;;;;;;19.87;9.27;;;-3.40;99.90;;;;;;5075265;28;20299;-80
2024/01/20 06:45:17;;;;;;;17.90;9.20;;;-3.40;99.90;;;;;;5057532;28;20169;-80
2024/01/20 06:47:43;;;;;;;18.00;9.10;;;-3.40;99.90;;;;;;5057598;28;20235;-80
2024/01/20 06:50:09;;;;;;;18.73;9.03;;;-3.40;99.90;;;;;;5074659;28;20188;-80
2024/01/20 06:52:34;;;;;;;18.13;9.50;;;-3.40;99.90;;;;;;5075164;28;20242;-80
2024/01/20 06:55:00;;;;;;;17.13;8.90;;;-3.40;99.90;;;;;;5075153;28;20200;-80
2024/01/20 06:57:25;;;;;;;17.00;8.20;;;-3.40;99.90;;;;;;5074911;28;20219;-80
2024/01/20 06:59:52;;;;;;;17.97;8.77;;;-3.50;99.90;;;;;;5056942;28;20201;-80
2024/01/20 07:02:17;;;;;;;19.20;8.87;;;-3.50;99.90;;;;;;5056736;28;20295;-80
2024/01/20 07:04:43;;;;;;;17.13;8.43;;;-3.60;99.90;;;;;;5056919;28;20219;-80
2024/01/20 07:07:08;;;;;;;15.07;7.97;;;-3.50;99.90;;;;;;5074938;28;20172;-80
2024/01/20 07:09:39;;;;;;;17.10;8.30;;;-3.60;99.90;;;;;;5056632;28;20197;-80
2024/01/20 07:12:05;;;;;;;13.10;7.70;;;-3.60;99.90;;;;;;5056583;28;20176;-81
2024/01/20 07:14:31;;;;;;;15.67;7.60;;;-3.60;99.90;;;;;;5056707;28;20180;-79
2024/01/20 07:16:56;;;;;;;17.43;7.67;;;-3.60;99.90;;;;;;5074616;28;20177;-80
2024/01/20 07:19:22;;;;;;;19.20;8.13;;;-3.60;99.90;;;;;;5056643;28;20207;-79
2024/01/20 07:21:47;;;;;;;18.53;8.67;;;-3.60;99.90;;;;;;5056232;28;20243;-82
2024/01/20 07:24:13;;;;;;;15.67;8.27;;;-3.60;99.90;;;;;;5074768;28;20165;-80
2024/01/20 07:26:39;;;;;;;15.60;8.20;;;-3.60;99.90;;;;;;5056607;28;20169;-80
2024/01/20 07:29:04;;;;;;;16.00;8.47;;;-3.70;99.90;;;;;;5056638;28;20660;-80
2024/01/20 07:31:30;;;;;;;16.83;9.07;;;-3.60;99.90;;;;;;5073928;28;20169;-82
2024/01/20 07:33:55;;;;;;;18.80;7.77;;;-3.60;99.90;;;;;;5074355;28;20204;-80
2024/01/20 07:36:21;;;;;;;19.63;8.73;;;-3.60;99.90;;;;;;5056553;28;20189;-82
2024/01/20 07:38:46;;;;;;;16.70;8.23;;;-3.80;99.90;;;;;;5074593;28;20201;-81
2024/01/20 07:41:12;;;;;;;17.40;8.23;;;-3.80;99.90;;;;;;5056971;28;20227;-84
2024/01/20 07:43:37;;;;;;;14.83;7.87;;;-3.80;99.90;;;;;;5056990;28;20558;-80
2024/01/20 07:46:03;;;;;;;20.07;8.77;;;-3.80;99.90;;;;;;5055979;28;20235;-81
2024/01/20 07:48:29;;;;;;;15.17;8.23;;;-3.80;99.90;;;;;;5056492;28;20193;-80
2024/01/20 07:50:54;;;;;;;20.93;8.47;;;-3.80;99.90;;;;;;5055825;28;20187;-80
2024/01/20 07:53:20;;;;;;;19.13;8.67;;;-3.80;99.90;;;;;;5073801;28;20181;-80
2024/01/20 07:55:45;;;;;;;20.37;8.43;;;-3.80;99.90;;;;;;5056201;28;20180;-81
2024/01/20 07:58:11;;;;;;;16.40;8.10;;;-3.80;99.90;;;;;;5074146;28;20216;-81
2024/01/20 08:00:37;;;;;;;18.93;9.40;;;-3.70;99.90;;;;;;5073659;28;20177;-80
2024/01/20 08:03:02;;;;;;;19.23;9.03;;;-3.70;99.90;;;;;;5055774;28;20173;-81
2024/01/20 08:05:28;;;;;;;19.00;8.43;;;-3.70;99.90;;;;;;5073757;28;20176;-80
2024/01/20 08:07:54;;;;;;;16.27;8.80;;;-3.60;99.90;;;;;;5073825;28;20279;-80
2024/01/20 08:10:20;;;;;;;15.90;8.17;;;-3.60;99.90;;;;;;5073296;28;20177;-81
2024/01/20 08:12:45;;;;;;;12.10;6.83;;;-3.60;99.90;;;;;;5073622;28;20252;-80
2024/01/20 08:15:11;;;;;;;15.70;8.07;;;-3.60;99.90;;;;;;5073362;28;20264;-81
2024/01/20 08:17:36;;;;;;;14.07;6.47;;;-3.50;99.90;;;;;;5073366;28;20228;-80
2024/01/20 08:20:02;;;;;;;14.77;7.50;;;-3.50;99.90;;;;;;5055294;28;20181;-80
2024/01/20 08:22:28;;;;;;;14.50;7.77;;;-3.40;99.90;;;;;;5072926;28;20211;-80
2024/01/20 08:24:53;;;;;;;15.73;7.83;;;-3.40;99.90;;;;;;5055515;28;20185;-81
2024/01/20 08:27:19;;;;;;;14.03;7.90;;;-3.40;99.90;;;;;;5055440;28;20268;-80
2024/01/20 08:29:44;;;;;;;18.50;8.10;;;-3.50;99.90;;;;;;5072831;28;20184;-80
2024/01/20 08:32:10;;;;;;;15.23;8.10;;;-3.50;99.90;;;;;;5054826;28;20173;-81
2024/01/20 08:34:35;;;;;;;14.43;8.00;;;-3.50;99.90;;;;;;5072913;28;20181;-80
2024/01/20 08:37:01;;;;;;;16.43;8.77;;;-3.50;99.90;;;;;;5055275;28;20279;-80
2024/01/20 08:39:26;;;;;;;16.23;8.17;;;-3.50;99.90;;;;;;5055201;28;20252;-81
2024/01/20 08:41:52;;;;;;;15.87;8.27;;;-3.50;99.90;;;;;;5072777;28;20229;-80
2024/01/20 08:44:18;;;;;;;14.97;8.03;;;-3.40;99.90;;;;;;5055270;28;20177;-81
2024/01/20 08:46:45;;;;;;;13.03;7.07;;;-3.50;99.90;;;;;;5054940;28;20211;-81
2024/01/20 08:49:10;;;;;;;14.47;7.70;;;-3.50;99.90;;;;;;5054732;28;20201;-80
2024/01/20 08:51:36;;;;;;;12.47;7.47;;;-3.40;99.90;;;;;;5054385;28;20188;-80
2024/01/20 08:54:02;;;;;;;14.03;6.33;;;-3.50;99.90;;;;;;5072822;28;20181;-83
2024/01/20 08:56:27;;;;;;;11.90;6.60;;;-3.40;99.90;;;;;;5071968;28;20252;-80
2024/01/20 08:58:53;;;;;;;14.23;7.90;;;-3.20;99.90;;;;;;5072602;28;20228;-82
2024/01/20 09:01:18;;;;;;;13.13;7.50;;;-3.10;99.90;;;;;;5071999;28;20232;-82
2024/01/20 09:03:44;;;;;;;16.13;7.97;;;-3.00;99.90;;;;;;5054627;28;20207;-83
2024/01/20 09:06:13;;;;;;;15.87;9.47;;;-2.90;99.90;;;;;;5072645;28;20181;-81
2024/01/20 09:08:39;;;;;;;16.50;7.77;;;-3.00;99.90;;;;;;5072429;28;20280;-81
2024/01/20 09:11:04;;;;;;;15.47;8.40;;;-3.00;99.90;;;;;;5071926;28;20273;-83
2024/01/20 09:13:30;;;;;;;19.13;9.97;;;-3.00;99.90;;;;;;5054388;28;20169;-82
2024/01/20 09:15:56;;;;;;;15.10;8.77;;;-2.90;99.90;;;;;;5054267;28;20173;-83
2024/01/20 09:18:21;;;;;;;16.07;9.43;;;-2.70;99.90;;;;;;5054345;28;20185;-81
2024/01/20 09:20:47;;;;;;;12.83;7.20;;;-2.60;99.90;;;;;;5053808;28;20223;-82
2024/01/20 09:23:12;;;;;;;14.43;7.27;;;-2.70;99.90;;;;;;5054674;28;20181;-85
2024/01/20 09:25:38;;;;;;;14.63;8.00;;;-2.70;99.90;;;;;;5055971;28;20314;-83
2024/01/20 09:28:05;;;;;;;12.53;7.67;;;-2.70;99.90;;;;;;5053758;28;20209;-82
2024/01/20 09:30:31;;;;;;;13.23;7.47;;;-2.60;99.90;;;;;;5053455;28;20184;-84
2024/01/20 09:32:57;;;;;;;11.10;6.20;;;-2.50;99.90;;;;;;5052090;28;20181;-83
2024/01/20 09:35:22;;;;;;;11.40;7.10;;;-2.40;99.90;;;;;;5070306;28;20178;-83
2024/01/20 09:37:48;;;;;;;10.97;5.90;;;-2.50;99.90;;;;;;5052495;28;20566;-82
2024/01/20 09:40:15;;;;;;;13.27;7.67;;;-2.50;99.90;;;;;;5051673;28;20197;-84
2024/01/20 09:42:41;;;;;;;14.67;7.20;;;-2.40;99.90;;;;;;5054339;28;20218;-82
2024/01/20 09:45:08;;;;;;;9.03;5.90;;;-2.30;99.90;;;;;;5071334;28;20177;-82
2024/01/20 09:47:34;;;;;;;10.67;5.40;;;-2.10;99.90;;;;;;5071596;28;20219;-82
2024/01/20 09:50:01;;;;;;;9.53;5.80;;;-1.90;80.60;;;;;;5070956;28;20554;-81
2024/01/20 09:52:28;;;;;;;12.07;7.40;;;-1.80;1.00;;;;;;5072057;28;20181;-79
2024/01/20 09:55:12;;;;;;;11.77;6.73;;;-1.70;1.00;;;;;;5071970;28;20177;-83
2024/01/20 09:57:40;;;;;;;11.93;6.00;;;-1.70;1.00;;;;;;5070721;28;20212;-81
2024/01/20 10:00:08;;;;;;;9.30;5.60;;;-1.80;1.00;;;;;;5052114;28;20688;-82
2024/01/20 10:02:35;;;;;;;11.10;5.93;;;-1.70;1.00;;;;;;5071792;28;20211;-81
2024/01/20 10:05:04;;;;;;;10.27;5.93;;;-1.60;1.00;;;;;;5053797;28;20183;-83
2024/01/20 10:07:30;;;;;;;12.97;7.67;;;-1.60;1.00;;;;;;5053899;28;20256;-82
2024/01/20 10:09:56;;;;;;;11.20;6.30;;;-1.60;1.00;;;;;;5057275;28;20261;-83
2024/01/20 10:12:25;;;;;;;12.67;7.87;;;-1.70;1.00;;;;;;5075869;28;20635;-83
2024/01/20 10:14:52;;;;;;;11.67;7.50;;;-1.50;1.00;;;;;;5076242;28;20245;-81
2024/01/20 10:17:18;;;;;;;11.90;6.57;;;-1.30;1.00;;;;;;5058000;28;20257;-82
2024/01/20 10:19:44;;;;;;;10.13;6.10;;;-1.20;1.00;;;;;;5075605;28;20292;-81
2024/01/20 10:22:10;;;;;;;10.23;5.90;;;-1.20;1.00;;;;;;5075804;28;20212;-81
2024/01/20 10:24:52;;;;;;;10.23;6.40;;;-1.30;1.00;;;;;;5057582;28;20533;-81
2024/01/20 10:27:19;;;;;;;9.67;6.70;;;-1.30;1.00;;;;;;5075610;28;20562;-81
2024/01/20 10:29:46;;;;;;;11.10;7.23;;;-1.20;1.00;;;;;;5057268;28;20269;-81
2024/01/20 10:32:13;;;;;;;12.70;7.60;;;-0.90;1.00;;;;;;5057080;28;20210;-81
2024/01/20 10:34:38;;;;;;;12.23;6.90;;;-1.00;99.90;;;;;;5057410;28;20558;-82
2024/01/20 10:37:10;;;;;;;10.30;6.13;;;-0.80;1.00;;;;;;5057334;28;20842;-82
2024/01/20 10:39:43;;;;;;;11.93;7.20;;;-0.70;99.90;;;;;;5075305;28;20198;-84
2024/01/20 10:42:14;;;;;;;11.87;6.97;;;-0.50;1.00;;;;;;5075160;28;20213;-84
2024/01/20 10:45:02;;;;;;;12.00;7.50;;;-0.40;1.00;;;;;;5057261;28;20202;-83
2024/01/20 10:47:59;;;;;;;8.07;5.37;;;0.40;1.00;;;;;;5074609;28;20551;-82
2024/01/20 10:50:25;;;;;;;9.33;6.00;;;0.30;72.50;;;;;;5024305;28;20180;-79
2024/01/20 10:52:51;;;;;;;10.83;6.00;;;0.30;1.00;;;;;;5073501;28;20211;-80
2024/01/20 10:55:18;;;;;;;9.53;4.97;;;0.70;1.00;;;;;;5074432;28;20188;-82
2024/01/20 10:57:46;;;;;;;8.63;5.10;;;0.60;1.00;;;;;;5057307;28;20212;-82
2024/01/20 11:00:13;;;;;;;7.70;4.90;;;0.40;99.90;;;;;;5074558;28;20180;-82
2024/01/20 11:02:40;;;;;;;8.33;5.57;;;0.50;1.00;;;;;;5074727;28;20677;-81
2024/01/20 11:05:26;;;;;;;9.70;5.87;;;0.70;78.60;;;;;;5057308;28;20184;-82
2024/01/20 11:08:08;;;;;;;9.87;6.10;;;1.30;1.00;;;;;;5056622;28;20288;-81
2024/01/20 11:10:45;;;;;;;9.70;6.00;;;1.80;1.00;;;;;;5074672;28;20200;-81
2024/01/20 11:13:13;;;;;;;8.87;5.63;;;1.90;1.00;;;;;;5074820;28;20219;-81
2024/01/20 11:15:40;;;;;;;10.67;6.47;;;1.80;99.90;;;;;;5056825;28;20177;-82
2024/01/20 11:18:19;;;;;;;9.93;6.33;;;2.30;1.00;;;;;;5056877;28;20283;-81
2024/01/20 11:21:01;;;;;;;9.93;6.30;;;2.70;1.00;;;;;;5072827;28;20185;-82
2024/01/20 11:23:28;;;;;;;11.73;6.67;;;2.90;1.00;;;;;;5056657;28;20248;-81
2024/01/20 11:25:54;;;;;;;9.17;6.00;;;2.30;54.30;;;;;;5074624;28;20173;-81
2024/01/20 11:28:24;;;;;;;9.37;6.50;;;2.20;1.00;;;;;;5074315;28;20729;-84
2024/01/20 11:30:49;;;;;;;11.93;6.80;;;1.90;1.00;;;;;;5073899;28;20615;-82
2024/01/20 11:33:15;;;;;;;8.20;6.17;;;2.20;1.00;;;;;;5074267;28;20255;-81
2024/01/20 11:35:41;;;;;;;13.50;8.93;;;2.60;1.00;;;;;;5074655;28;20228;-82
2024/01/20 11:38:07;;;;;;;8.73;6.23;;;2.90;99.90;;;;;;5056398;28;20195;-82
2024/01/20 11:40:33;;;;;;;9.93;6.60;;;3.10;1.00;;;;;;5055936;28;20180;-82
2024/01/20 11:43:06;;;;;;;9.73;7.63;;;3.20;1.00;;;;;;5073727;28;20207;-82
2024/01/20 11:45:32;;;;;;;9.40;6.40;;;3.10;20.80;;;;;;5056249;28;20557;-81
2024/01/20 11:47:57;;;;;;;9.90;7.33;;;2.30;99.90;;;;;;5056488;28;20196;-82
2024/01/20 11:50:23;;;;;;;9.40;6.10;;;2.30;99.90;;;;;;5056773;28;20181;-84
2024/01/20 11:52:49;;;;;;;9.40;7.00;;;2.60;99.90;;;;;;5074502;28;20208;-80
2024/01/20 11:55:14;;;;;;;10.33;6.83;;;2.60;1.00;;;;;;5055584;28;20183;-81
2024/01/20 11:57:40;;;;;;;10.90;6.93;;;2.50;99.90;;;;;;5074724;28;20253;-81
2024/01/20 12:00:06;;;;;;;9.13;6.50;;;2.80;1.00;;;;;;5073960;28;20196;-83
2024/01/20 12:02:32;;;;;;;11.37;6.83;;;2.80;1.00;;;;;;5056197;28;20206;-83
2024/01/20 12:04:58;;;;;;;11.33;6.90;;;2.70;99.90;;;;;;5074200;28;20179;-82
2024/01/20 12:07:24;;;;;;;11.00;7.00;;;3.10;99.90;;;;;;5073823;28;20182;-82
2024/01/20 12:09:50;;;;;;;10.40;6.63;;;2.60;99.90;;;;;;5055704;28;20169;-81
2024/01/20 12:12:17;;;;;;;9.37;6.23;;;3.20;99.90;;;;;;5055370;28;20173;-80
2024/01/20 12:14:46;;;;;;;10.50;6.70;;;3.10;1.00;;;;;;5056105;28;20264;-81
2024/01/20 12:17:12;;;;;;;9.90;6.57;;;3.30;1.00;;;;;;5073581;28;20207;-79
2024/01/20 12:19:39;;;;;;;9.07;6.67;;;3.10;1.00;;;;;;5073268;28;20172;-79
2024/01/20 12:22:09;;;;;;;8.87;6.43;;;2.90;1.00;;;;;;5055001;28;20207;-78
2024/01/20 12:24:35;;;;;;;10.57;6.30;;;3.10;1.00;;;;;;5055091;28;20183;-78
2024/01/20 12:27:04;;;;;;;8.77;6.07;;;3.20;1.00;;;;;;5055242;28;20172;-79
2024/01/20 12:29:30;;;;;;;11.03;6.70;;;2.60;23.30;;;;;;5072602;28;20196;-80
2024/01/20 12:32:00;;;;;;;14.47;10.23;;;2.70;99.90;;;;;;5054909;28;20187;-79
2024/01/20 12:34:26;;;;;;;10.37;6.87;;;2.70;7.10;;;;;;5055569;28;20181;-79